sensor_id;sensor_type;location;lat;lon;timestamp;P1;durP1;ratioP1;P2;durP2;ratioP2
34896;SDS011;43407;51.828;-2.298;2023-04-08T00:00:40;4.68;;;4.18;;
34896;SDS011;43407;51.828;-2.298;2023-04-08T00:03:05;4.38;;;3.95;;
34896;SDS011;43407;51.828;-2.298;2023-04-08T00:05:31;5.30;;;4.15;;
34896;SDS011;43407;51.828;-2.298;2023-04-08T00:07:58;5.95;;;4.10;;
34896;SDS011;43407;51.828;-2.298;2023-04-08T00:10:24;5.47;;;4.18;;
34896;SDS011;43407;51.828;-2.298;2023-04-08T00:12:50;4.97;;;4.38;;
34896;SDS011;43407;51.828;-2.298;2023-04-08T00:15:16;6.32;;;4.43;;
34896;SDS011;43407;51.828;-2.298;2023-04-08T00:17:42;5.97;;;4.63;;
34896;SDS011;43407;51.828;-2.298;2023-04-08T00:20:10;6.18;;;3.97;;
34896;SDS011;43407;51.828;-2.298;2023-04-08T00:22:36;5.97;;;4.60;;
34896;SDS011;43407;51.828;-2.298;2023-04-08T00:25:01;5.32;;;4.20;;
34896;SDS011;43407;51.828;-2.298;2023-04-08T00:27:30;7.40;;;3.55;;
34896;SDS011;43407;51.828;-2.298;2023-04-08T00:29:56;5.05;;;4.07;;
34896;SDS011;43407;51.828;-2.298;2023-04-08T00:32:27;5.80;;;4.35;;
34896;SDS011;43407;51.828;-2.298;2023-04-08T00:34:53;5.28;;;4.15;;
34896;SDS011;43407;51.828;-2.298;2023-04-08T00:37:21;4.95;;;4.45;;
34896;SDS011;43407;51.828;-2.298;2023-04-08T00:39:47;4.93;;;4.10;;
34896;SDS011;43407;51.828;-2.298;2023-04-08T00:42:13;4.63;;;3.95;;
34896;SDS011;43407;51.828;-2.298;2023-04-08T00:44:39;6.88;;;4.35;;
34896;SDS011;43407;51.828;-2.298;2023-04-08T00:47:04;5.57;;;3.90;;
34896;SDS011;43407;51.828;-2.298;2023-04-08T00:49:30;6.90;;;4.32;;
34896;SDS011;43407;51.828;-2.298;2023-04-08T00:51:57;7.53;;;3.85;;
34896;SDS011;43407;51.828;-2.298;2023-04-08T00:54:23;5.63;;;3.58;;
34896;SDS011;43407;51.828;-2.298;2023-04-08T00:56:49;4.90;;;3.70;;
34896;SDS011;43407;51.828;-2.298;2023-04-08T00:59:16;5.65;;;4.15;;
34896;SDS011;43407;51.828;-2.298;2023-04-08T01:01:54;5.03;;;4.30;;
34896;SDS011;43407;51.828;-2.298;2023-04-08T01:09:38;6.57;;;4.35;;
34896;SDS011;43407;51.828;-2.298;2023-04-08T01:12:05;6.80;;;4.88;;
34896;SDS011;43407;51.828;-2.298;2023-04-08T01:14:34;5.90;;;3.85;;
34896;SDS011;43407;51.828;-2.298;2023-04-08T01:17:03;5.85;;;4.45;;
34896;SDS011;43407;51.828;-2.298;2023-04-08T01:19:30;5.63;;;4.10;;
34896;SDS011;43407;51.828;-2.298;2023-04-08T01:22:02;5.82;;;4.18;;
34896;SDS011;43407;51.828;-2.298;2023-04-08T01:24:35;4.97;;;4.03;;
34896;SDS011;43407;51.828;-2.298;2023-04-08T01:27:04;5.68;;;4.43;;
34896;SDS011;43407;51.828;-2.298;2023-04-08T01:29:35;6.85;;;4.90;;
34896;SDS011;43407;51.828;-2.298;2023-04-08T01:32:04;5.60;;;4.28;;
34896;SDS011;43407;51.828;-2.298;2023-04-08T01:34:31;7.85;;;4.57;;
34896;SDS011;43407;51.828;-2.298;2023-04-08T01:36:59;6.03;;;4.68;;
34896;SDS011;43407;51.828;-2.298;2023-04-08T01:39:24;8.05;;;4.57;;
34896;SDS011;43407;51.828;-2.298;2023-04-08T01:41:50;4.50;;;4.00;;
34896;SDS011;43407;51.828;-2.298;2023-04-08T01:44:18;5.10;;;4.60;;
34896;SDS011;43407;51.828;-2.298;2023-04-08T01:46:44;7.40;;;4.47;;
34896;SDS011;43407;51.828;-2.298;2023-04-08T01:49:12;6.70;;;4.38;;
34896;SDS011;43407;51.828;-2.298;2023-04-08T01:51:38;6.05;;;4.40;;
34896;SDS011;43407;51.828;-2.298;2023-04-08T01:54:04;5.28;;;4.50;;
34896;SDS011;43407;51.828;-2.298;2023-04-08T01:56:30;6.82;;;4.00;;
34896;SDS011;43407;51.828;-2.298;2023-04-08T01:59:00;5.90;;;4.20;;
34896;SDS011;43407;51.828;-2.298;2023-04-08T02:01:28;5.57;;;4.28;;
34896;SDS011;43407;51.828;-2.298;2023-04-08T02:03:54;6.25;;;4.05;;
34896;SDS011;43407;51.828;-2.298;2023-04-08T02:06:21;7.78;;;4.50;;
34896;SDS011;43407;51.828;-2.298;2023-04-08T02:08:47;5.63;;;4.40;;
34896;SDS011;43407;51.828;-2.298;2023-04-08T02:11:13;5.80;;;4.00;;
34896;SDS011;43407;51.828;-2.298;2023-04-08T02:13:39;6.78;;;4.15;;
34896;SDS011;43407;51.828;-2.298;2023-04-08T02:16:08;4.75;;;3.92;;
34896;SDS011;43407;51.828;-2.298;2023-04-08T02:18:44;5.55;;;4.13;;
34896;SDS011;43407;51.828;-2.298;2023-04-08T02:21:20;5.70;;;3.60;;
34896;SDS011;43407;51.828;-2.298;2023-04-08T02:23:47;4.50;;;3.90;;
34896;SDS011;43407;51.828;-2.298;2023-04-08T02:26:15;5.63;;;3.83;;
34896;SDS011;43407;51.828;-2.298;2023-04-08T02:28:41;4.60;;;3.55;;
34896;SDS011;43407;51.828;-2.298;2023-04-08T02:31:09;4.35;;;3.70;;
34896;SDS011;43407;51.828;-2.298;2023-04-08T02:33:39;5.30;;;3.78;;
34896;SDS011;43407;51.828;-2.298;2023-04-08T02:36:05;5.78;;;4.10;;
34896;SDS011;43407;51.828;-2.298;2023-04-08T02:38:32;3.92;;;3.53;;
34896;SDS011;43407;51.828;-2.298;2023-04-08T02:40:57;5.93;;;3.80;;
34896;SDS011;43407;51.828;-2.298;2023-04-08T02:43:24;4.70;;;4.18;;
34896;SDS011;43407;51.828;-2.298;2023-04-08T02:45:56;5.38;;;3.95;;
34896;SDS011;43407;51.828;-2.298;2023-04-08T02:48:24;6.47;;;4.35;;
34896;SDS011;43407;51.828;-2.298;2023-04-08T02:50:50;5.88;;;4.15;;
34896;SDS011;43407;51.828;-2.298;2023-04-08T02:53:15;4.53;;;4.13;;
34896;SDS011;43407;51.828;-2.298;2023-04-08T02:55:41;4.13;;;3.63;;
34896;SDS011;43407;51.828;-2.298;2023-04-08T02:58:06;4.28;;;3.67;;
34896;SDS011;43407;51.828;-2.298;2023-04-08T03:00:32;4.13;;;3.70;;
34896;SDS011;43407;51.828;-2.298;2023-04-08T03:02:58;4.53;;;3.72;;
34896;SDS011;43407;51.828;-2.298;2023-04-08T03:05:24;4.07;;;3.55;;
34896;SDS011;43407;51.828;-2.298;2023-04-08T03:07:50;4.15;;;3.75;;
34896;SDS011;43407;51.828;-2.298;2023-04-08T03:10:16;5.97;;;3.72;;
34896;SDS011;43407;51.828;-2.298;2023-04-08T03:12:41;4.50;;;3.63;;
34896;SDS011;43407;51.828;-2.298;2023-04-08T03:15:07;5.07;;;3.63;;
34896;SDS011;43407;51.828;-2.298;2023-04-08T03:17:33;4.78;;;3.55;;
34896;SDS011;43407;51.828;-2.298;2023-04-08T03:19:59;3.67;;;3.17;;
34896;SDS011;43407;51.828;-2.298;2023-04-08T03:22:25;4.93;;;3.72;;
34896;SDS011;43407;51.828;-2.298;2023-04-08T03:24:51;5.15;;;3.13;;
34896;SDS011;43407;51.828;-2.298;2023-04-08T03:27:17;4.28;;;3.75;;
34896;SDS011;43407;51.828;-2.298;2023-04-08T03:29:42;4.57;;;3.92;;
34896;SDS011;43407;51.828;-2.298;2023-04-08T03:32:10;4.22;;;3.83;;
34896;SDS011;43407;51.828;-2.298;2023-04-08T03:34:36;3.80;;;3.38;;
34896;SDS011;43407;51.828;-2.298;2023-04-08T03:37:01;3.30;;;3.00;;
34896;SDS011;43407;51.828;-2.298;2023-04-08T03:39:27;6.50;;;3.95;;
34896;SDS011;43407;51.828;-2.298;2023-04-08T03:41:53;3.92;;;3.47;;
34896;SDS011;43407;51.828;-2.298;2023-04-08T03:44:18;6.68;;;4.55;;
34896;SDS011;43407;51.828;-2.298;2023-04-08T03:46:44;5.22;;;4.40;;
34896;SDS011;43407;51.828;-2.298;2023-04-08T03:49:09;6.43;;;4.32;;
34896;SDS011;43407;51.828;-2.298;2023-04-08T03:51:35;4.82;;;3.83;;
34896;SDS011;43407;51.828;-2.298;2023-04-08T03:54:01;4.28;;;3.65;;
34896;SDS011;43407;51.828;-2.298;2023-04-08T03:56:29;3.80;;;3.42;;
34896;SDS011;43407;51.828;-2.298;2023-04-08T03:58:58;5.18;;;4.22;;
34896;SDS011;43407;51.828;-2.298;2023-04-08T04:01:23;4.28;;;3.60;;
34896;SDS011;43407;51.828;-2.298;2023-04-08T04:03:49;4.45;;;3.75;;
34896;SDS011;43407;51.828;-2.298;2023-04-08T04:06:15;5.15;;;4.22;;
34896;SDS011;43407;51.828;-2.298;2023-04-08T04:08:40;5.07;;;4.30;;
34896;SDS011;43407;51.828;-2.298;2023-04-08T04:11:06;5.18;;;4.07;;
34896;SDS011;43407;51.828;-2.298;2023-04-08T04:13:31;5.32;;;4.38;;
34896;SDS011;43407;51.828;-2.298;2023-04-08T04:15:57;6.55;;;4.43;;
34896;SDS011;43407;51.828;-2.298;2023-04-08T04:18:23;6.45;;;4.93;;
34896;SDS011;43407;51.828;-2.298;2023-04-08T04:20:48;6.68;;;4.85;;
34896;SDS011;43407;51.828;-2.298;2023-04-08T04:23:14;5.85;;;4.43;;
34896;SDS011;43407;51.828;-2.298;2023-04-08T04:25:40;4.55;;;4.15;;
34896;SDS011;43407;51.828;-2.298;2023-04-08T04:28:06;5.22;;;4.65;;
34896;SDS011;43407;51.828;-2.298;2023-04-08T04:30:35;6.50;;;4.35;;
34896;SDS011;43407;51.828;-2.298;2023-04-08T04:33:02;7.25;;;4.60;;
34896;SDS011;43407;51.828;-2.298;2023-04-08T04:35:28;7.05;;;4.45;;
34896;SDS011;43407;51.828;-2.298;2023-04-08T04:37:54;4.30;;;3.90;;
34896;SDS011;43407;51.828;-2.298;2023-04-08T04:40:19;6.82;;;3.95;;
34896;SDS011;43407;51.828;-2.298;2023-04-08T04:42:45;6.60;;;3.90;;
34896;SDS011;43407;51.828;-2.298;2023-04-08T04:45:13;5.80;;;4.30;;
34896;SDS011;43407;51.828;-2.298;2023-04-08T04:47:39;4.82;;;4.13;;
34896;SDS011;43407;51.828;-2.298;2023-04-08T04:50:05;5.40;;;3.92;;
34896;SDS011;43407;51.828;-2.298;2023-04-08T04:52:31;7.32;;;4.15;;
34896;SDS011;43407;51.828;-2.298;2023-04-08T04:54:57;5.05;;;4.13;;
34896;SDS011;43407;51.828;-2.298;2023-04-08T04:57:23;4.68;;;3.85;;
34896;SDS011;43407;51.828;-2.298;2023-04-08T04:59:48;4.47;;;4.07;;
34896;SDS011;43407;51.828;-2.298;2023-04-08T05:02:14;7.05;;;4.32;;
34896;SDS011;43407;51.828;-2.298;2023-04-08T05:04:40;6.10;;;4.32;;
34896;SDS011;43407;51.828;-2.298;2023-04-08T05:07:06;6.03;;;5.00;;
34896;SDS011;43407;51.828;-2.298;2023-04-08T05:09:31;6.72;;;4.78;;
34896;SDS011;43407;51.828;-2.298;2023-04-08T05:11:57;6.38;;;5.38;;
34896;SDS011;43407;51.828;-2.298;2023-04-08T05:14:22;5.50;;;4.10;;
34896;SDS011;43407;51.828;-2.298;2023-04-08T05:16:48;6.07;;;4.43;;
34896;SDS011;43407;51.828;-2.298;2023-04-08T05:19:13;5.45;;;4.65;;
34896;SDS011;43407;51.828;-2.298;2023-04-08T05:21:41;8.02;;;4.90;;
34896;SDS011;43407;51.828;-2.298;2023-04-08T05:24:07;8.85;;;5.45;;
34896;SDS011;43407;51.828;-2.298;2023-04-08T05:26:33;5.90;;;4.95;;
34896;SDS011;43407;51.828;-2.298;2023-04-08T05:28:59;5.85;;;4.90;;
34896;SDS011;43407;51.828;-2.298;2023-04-08T05:31:24;5.80;;;4.80;;
34896;SDS011;43407;51.828;-2.298;2023-04-08T05:33:50;9.07;;;4.80;;
34896;SDS011;43407;51.828;-2.298;2023-04-08T05:36:16;5.57;;;4.55;;
34896;SDS011;43407;51.828;-2.298;2023-04-08T05:38:41;5.63;;;4.57;;
34896;SDS011;43407;51.828;-2.298;2023-04-08T05:41:08;6.45;;;4.55;;
34896;SDS011;43407;51.828;-2.298;2023-04-08T05:43:34;6.95;;;4.38;;
34896;SDS011;43407;51.828;-2.298;2023-04-08T05:46:09;6.07;;;4.32;;
34896;SDS011;43407;51.828;-2.298;2023-04-08T05:48:35;7.32;;;4.72;;
34896;SDS011;43407;51.828;-2.298;2023-04-08T05:51:00;5.97;;;4.38;;
34896;SDS011;43407;51.828;-2.298;2023-04-08T05:53:26;6.47;;;4.43;;
34896;SDS011;43407;51.828;-2.298;2023-04-08T05:55:55;6.75;;;4.93;;
34896;SDS011;43407;51.828;-2.298;2023-04-08T05:58:21;5.18;;;4.38;;
34896;SDS011;43407;51.828;-2.298;2023-04-08T06:00:46;8.02;;;4.15;;
34896;SDS011;43407;51.828;-2.298;2023-04-08T06:03:12;5.68;;;4.20;;
34896;SDS011;43407;51.828;-2.298;2023-04-08T06:05:38;5.88;;;4.18;;
34896;SDS011;43407;51.828;-2.298;2023-04-08T06:08:03;5.72;;;4.38;;
34896;SDS011;43407;51.828;-2.298;2023-04-08T06:10:29;4.38;;;3.97;;
34896;SDS011;43407;51.828;-2.298;2023-04-08T06:12:55;7.32;;;3.97;;
34896;SDS011;43407;51.828;-2.298;2023-04-08T06:15:20;3.45;;;3.15;;
34896;SDS011;43407;51.828;-2.298;2023-04-08T06:17:46;4.78;;;3.80;;
34896;SDS011;43407;51.828;-2.298;2023-04-08T06:20:12;4.47;;;3.92;;
34896;SDS011;43407;51.828;-2.298;2023-04-08T06:22:37;5.20;;;3.65;;
34896;SDS011;43407;51.828;-2.298;2023-04-08T06:25:03;5.25;;;3.70;;
34896;SDS011;43407;51.828;-2.298;2023-04-08T06:27:29;4.80;;;3.60;;
34896;SDS011;43407;51.828;-2.298;2023-04-08T06:29:55;4.25;;;3.58;;
34896;SDS011;43407;51.828;-2.298;2023-04-08T06:32:21;5.15;;;2.95;;
34896;SDS011;43407;51.828;-2.298;2023-04-08T06:34:47;5.63;;;3.53;;
34896;SDS011;43407;51.828;-2.298;2023-04-08T06:37:13;4.28;;;3.55;;
34896;SDS011;43407;51.828;-2.298;2023-04-08T06:39:38;5.15;;;3.80;;
34896;SDS011;43407;51.828;-2.298;2023-04-08T06:42:04;4.85;;;3.58;;
34896;SDS011;43407;51.828;-2.298;2023-04-08T06:44:30;4.40;;;3.60;;
34896;SDS011;43407;51.828;-2.298;2023-04-08T06:46:56;6.72;;;3.38;;
34896;SDS011;43407;51.828;-2.298;2023-04-08T06:49:22;4.63;;;3.63;;
34896;SDS011;43407;51.828;-2.298;2023-04-08T06:51:47;5.03;;;3.45;;
34896;SDS011;43407;51.828;-2.298;2023-04-08T06:54:13;5.80;;;3.78;;
34896;SDS011;43407;51.828;-2.298;2023-04-08T06:56:39;4.50;;;3.40;;
34896;SDS011;43407;51.828;-2.298;2023-04-08T06:59:04;4.65;;;3.20;;
34896;SDS011;43407;51.828;-2.298;2023-04-08T07:01:30;4.43;;;3.40;;
34896;SDS011;43407;51.828;-2.298;2023-04-08T07:03:56;5.18;;;2.65;;
34896;SDS011;43407;51.828;-2.298;2023-04-08T07:06:22;3.83;;;3.10;;
34896;SDS011;43407;51.828;-2.298;2023-04-08T07:08:47;4.22;;;3.05;;
34896;SDS011;43407;51.828;-2.298;2023-04-08T07:11:13;4.75;;;3.58;;
34896;SDS011;43407;51.828;-2.298;2023-04-08T07:13:39;5.20;;;3.47;;
34896;SDS011;43407;51.828;-2.298;2023-04-08T07:16:05;6.53;;;3.88;;
34896;SDS011;43407;51.828;-2.298;2023-04-08T07:18:31;5.65;;;3.55;;
34896;SDS011;43407;51.828;-2.298;2023-04-08T07:20:57;4.80;;;3.90;;
34896;SDS011;43407;51.828;-2.298;2023-04-08T07:23:25;5.13;;;3.67;;
34896;SDS011;43407;51.828;-2.298;2023-04-08T07:25:51;5.30;;;3.17;;
34896;SDS011;43407;51.828;-2.298;2023-04-08T07:28:18;4.35;;;3.70;;
34896;SDS011;43407;51.828;-2.298;2023-04-08T07:30:44;6.07;;;4.22;;
34896;SDS011;43407;51.828;-2.298;2023-04-08T07:33:10;4.07;;;3.67;;
34896;SDS011;43407;51.828;-2.298;2023-04-08T07:35:35;4.85;;;3.88;;
34896;SDS011;43407;51.828;-2.298;2023-04-08T07:38:02;5.90;;;4.60;;
34896;SDS011;43407;51.828;-2.298;2023-04-08T07:40:27;4.97;;;4.30;;
34896;SDS011;43407;51.828;-2.298;2023-04-08T07:42:54;4.90;;;4.28;;
34896;SDS011;43407;51.828;-2.298;2023-04-08T07:45:22;5.53;;;4.30;;
34896;SDS011;43407;51.828;-2.298;2023-04-08T07:47:48;4.38;;;3.70;;
34896;SDS011;43407;51.828;-2.298;2023-04-08T07:50:13;5.80;;;4.30;;
34896;SDS011;43407;51.828;-2.298;2023-04-08T07:52:39;5.10;;;4.43;;
34896;SDS011;43407;51.828;-2.298;2023-04-08T07:55:05;5.95;;;4.20;;
34896;SDS011;43407;51.828;-2.298;2023-04-08T07:57:31;5.47;;;3.78;;
34896;SDS011;43407;51.828;-2.298;2023-04-08T07:59:56;3.80;;;3.40;;
34896;SDS011;43407;51.828;-2.298;2023-04-08T08:02:22;4.78;;;4.28;;
34896;SDS011;43407;51.828;-2.298;2023-04-08T08:04:48;4.60;;;3.92;;
34896;SDS011;43407;51.828;-2.298;2023-04-08T08:07:14;4.93;;;3.58;;
34896;SDS011;43407;51.828;-2.298;2023-04-08T08:09:43;4.30;;;3.58;;
34896;SDS011;43407;51.828;-2.298;2023-04-08T08:12:09;4.28;;;3.65;;
34896;SDS011;43407;51.828;-2.298;2023-04-08T08:14:37;4.63;;;3.78;;
34896;SDS011;43407;51.828;-2.298;2023-04-08T08:17:02;5.13;;;4.20;;
34896;SDS011;43407;51.828;-2.298;2023-04-08T08:19:28;4.65;;;3.83;;
34896;SDS011;43407;51.828;-2.298;2023-04-08T08:21:54;3.85;;;3.42;;
34896;SDS011;43407;51.828;-2.298;2023-04-08T08:24:20;4.07;;;3.45;;
34896;SDS011;43407;51.828;-2.298;2023-04-08T08:26:46;4.30;;;3.60;;
34896;SDS011;43407;51.828;-2.298;2023-04-08T08:29:13;5.75;;;4.03;;
34896;SDS011;43407;51.828;-2.298;2023-04-08T08:31:39;4.90;;;3.90;;
34896;SDS011;43407;51.828;-2.298;2023-04-08T08:34:05;3.25;;;2.92;;
34896;SDS011;43407;51.828;-2.298;2023-04-08T08:36:30;3.45;;;3.15;;
34896;SDS011;43407;51.828;-2.298;2023-04-08T08:38:56;4.35;;;3.95;;
34896;SDS011;43407;51.828;-2.298;2023-04-08T08:41:21;4.38;;;3.95;;
34896;SDS011;43407;51.828;-2.298;2023-04-08T08:43:47;3.97;;;3.30;;
34896;SDS011;43407;51.828;-2.298;2023-04-08T08:46:15;4.80;;;4.32;;
34896;SDS011;43407;51.828;-2.298;2023-04-08T08:48:42;5.32;;;4.20;;
34896;SDS011;43407;51.828;-2.298;2023-04-08T08:51:08;4.43;;;3.33;;
34896;SDS011;43407;51.828;-2.298;2023-04-08T08:53:34;5.93;;;4.00;;
34896;SDS011;43407;51.828;-2.298;2023-04-08T08:56:00;4.20;;;3.80;;
34896;SDS011;43407;51.828;-2.298;2023-04-08T08:58:26;4.32;;;3.85;;
34896;SDS011;43407;51.828;-2.298;2023-04-08T09:00:52;5.72;;;3.95;;
34896;SDS011;43407;51.828;-2.298;2023-04-08T09:03:19;5.00;;;3.70;;
34896;SDS011;43407;51.828;-2.298;2023-04-08T09:10:50;3.92;;;3.05;;
34896;SDS011;43407;51.828;-2.298;2023-04-08T09:13:16;3.20;;;2.90;;
34896;SDS011;43407;51.828;-2.298;2023-04-08T09:16:03;2.95;;;2.47;;
34896;SDS011;43407;51.828;-2.298;2023-04-08T09:18:29;2.97;;;2.60;;
34896;SDS011;43407;51.828;-2.298;2023-04-08T09:21:00;3.10;;;2.80;;
34896;SDS011;43407;51.828;-2.298;2023-04-08T09:26:21;3.72;;;2.70;;
34896;SDS011;43407;51.828;-2.298;2023-04-08T09:28:58;2.60;;;2.38;;
34896;SDS011;43407;51.828;-2.298;2023-04-08T09:31:27;3.97;;;2.50;;
34896;SDS011;43407;51.828;-2.298;2023-04-08T09:33:55;2.88;;;2.10;;
34896;SDS011;43407;51.828;-2.298;2023-04-08T09:36:22;3.15;;;2.33;;
34896;SDS011;43407;51.828;-2.298;2023-04-08T09:38:48;2.38;;;2.00;;
34896;SDS011;43407;51.828;-2.298;2023-04-08T09:41:14;3.58;;;2.50;;
34896;SDS011;43407;51.828;-2.298;2023-04-08T09:43:42;4.28;;;2.83;;
34896;SDS011;43407;51.828;-2.298;2023-04-08T09:46:16;2.42;;;2.17;;
34896;SDS011;43407;51.828;-2.298;2023-04-08T09:48:46;2.88;;;2.30;;
34896;SDS011;43407;51.828;-2.298;2023-04-08T09:51:15;3.47;;;2.25;;
34896;SDS011;43407;51.828;-2.298;2023-04-08T09:53:45;2.45;;;2.25;;
34896;SDS011;43407;51.828;-2.298;2023-04-08T09:56:12;3.60;;;2.10;;
34896;SDS011;43407;51.828;-2.298;2023-04-08T09:58:40;2.67;;;1.90;;
34896;SDS011;43407;51.828;-2.298;2023-04-08T10:01:13;1.90;;;1.70;;
34896;SDS011;43407;51.828;-2.298;2023-04-08T10:03:39;2.83;;;1.80;;
34896;SDS011;43407;51.828;-2.298;2023-04-08T10:06:07;3.28;;;1.90;;
34896;SDS011;43407;51.828;-2.298;2023-04-08T10:08:35;3.30;;;2.00;;
34896;SDS011;43407;51.828;-2.298;2023-04-08T10:11:01;3.38;;;1.85;;
34896;SDS011;43407;51.828;-2.298;2023-04-08T10:13:27;2.55;;;1.73;;
34896;SDS011;43407;51.828;-2.298;2023-04-08T10:18:41;3.33;;;1.50;;
34896;SDS011;43407;51.828;-2.298;2023-04-08T10:24:12;3.45;;;2.10;;
34896;SDS011;43407;51.828;-2.298;2023-04-08T10:26:39;3.97;;;1.73;;
34896;SDS011;43407;51.828;-2.298;2023-04-08T10:31:45;2.47;;;1.70;;
34896;SDS011;43407;51.828;-2.298;2023-04-08T10:34:24;2.40;;;1.60;;
34896;SDS011;43407;51.828;-2.298;2023-04-08T10:36:51;3.25;;;1.60;;
34896;SDS011;43407;51.828;-2.298;2023-04-08T10:39:17;2.03;;;1.40;;
34896;SDS011;43407;51.828;-2.298;2023-04-08T10:41:43;2.08;;;1.50;;
34896;SDS011;43407;51.828;-2.298;2023-04-08T10:44:19;1.98;;;1.30;;
34896;SDS011;43407;51.828;-2.298;2023-04-08T10:46:45;2.63;;;1.48;;
34896;SDS011;43407;51.828;-2.298;2023-04-08T10:49:12;1.13;;;1.02;;
34896;SDS011;43407;51.828;-2.298;2023-04-08T10:51:38;3.47;;;1.40;;
34896;SDS011;43407;51.828;-2.298;2023-04-08T10:54:05;1.60;;;1.17;;
34896;SDS011;43407;51.828;-2.298;2023-04-08T10:56:44;3.35;;;1.60;;
34896;SDS011;43407;51.828;-2.298;2023-04-08T10:59:12;2.45;;;1.48;;
34896;SDS011;43407;51.828;-2.298;2023-04-08T11:01:41;2.50;;;1.52;;
34896;SDS011;43407;51.828;-2.298;2023-04-08T11:04:16;2.03;;;1.45;;
34896;SDS011;43407;51.828;-2.298;2023-04-08T11:06:47;1.75;;;1.30;;
34896;SDS011;43407;51.828;-2.298;2023-04-08T11:09:14;2.42;;;1.35;;
34896;SDS011;43407;51.828;-2.298;2023-04-08T11:11:41;1.98;;;1.33;;
34896;SDS011;43407;51.828;-2.298;2023-04-08T11:14:07;1.98;;;1.05;;
34896;SDS011;43407;51.828;-2.298;2023-04-08T11:16:33;1.40;;;1.10;;
34896;SDS011;43407;51.828;-2.298;2023-04-08T11:19:01;3.40;;;1.58;;
34896;SDS011;43407;51.828;-2.298;2023-04-08T11:21:28;2.17;;;1.38;;
34896;SDS011;43407;51.828;-2.298;2023-04-08T11:23:55;3.50;;;1.33;;
34896;SDS011;43407;51.828;-2.298;2023-04-08T11:26:21;3.20;;;1.85;;
34896;SDS011;43407;51.828;-2.298;2023-04-08T11:28:47;2.47;;;1.63;;
34896;SDS011;43407;51.828;-2.298;2023-04-08T11:31:14;2.88;;;1.67;;
34896;SDS011;43407;51.828;-2.298;2023-04-08T11:33:47;2.40;;;1.63;;
34896;SDS011;43407;51.828;-2.298;2023-04-08T11:36:14;2.47;;;1.70;;
34896;SDS011;43407;51.828;-2.298;2023-04-08T11:38:39;4.53;;;1.83;;
34896;SDS011;43407;51.828;-2.298;2023-04-08T11:41:06;2.10;;;1.42;;
34896;SDS011;43407;51.828;-2.298;2023-04-08T11:43:31;7.07;;;2.20;;
34896;SDS011;43407;51.828;-2.298;2023-04-08T11:45:57;2.30;;;2.10;;
34896;SDS011;43407;51.828;-2.298;2023-04-08T11:48:22;2.80;;;1.70;;
34896;SDS011;43407;51.828;-2.298;2023-04-08T11:50:49;2.63;;;1.45;;
34896;SDS011;43407;51.828;-2.298;2023-04-08T11:53:27;2.33;;;1.42;;
34896;SDS011;43407;51.828;-2.298;2023-04-08T11:55:53;3.65;;;1.70;;
34896;SDS011;43407;51.828;-2.298;2023-04-08T11:58:20;2.17;;;1.50;;
34896;SDS011;43407;51.828;-2.298;2023-04-08T12:00:46;2.80;;;1.80;;
34896;SDS011;43407;51.828;-2.298;2023-04-08T12:03:13;2.47;;;1.70;;
34896;SDS011;43407;51.828;-2.298;2023-04-08T12:05:39;2.78;;;1.77;;
34896;SDS011;43407;51.828;-2.298;2023-04-08T12:08:05;2.00;;;1.70;;
34896;SDS011;43407;51.828;-2.298;2023-04-08T12:10:31;3.00;;;1.92;;
34896;SDS011;43407;51.828;-2.298;2023-04-08T12:12:57;3.92;;;2.00;;
34896;SDS011;43407;51.828;-2.298;2023-04-08T12:15:22;2.72;;;1.77;;
34896;SDS011;43407;51.828;-2.298;2023-04-08T12:17:48;2.90;;;1.70;;
34896;SDS011;43407;51.828;-2.298;2023-04-08T12:20:13;3.35;;;1.95;;
34896;SDS011;43407;51.828;-2.298;2023-04-08T12:22:41;2.53;;;1.25;;
34896;SDS011;43407;51.828;-2.298;2023-04-08T12:25:06;1.92;;;1.38;;
34896;SDS011;43407;51.828;-2.298;2023-04-08T12:27:35;1.75;;;1.48;;
34896;SDS011;43407;51.828;-2.298;2023-04-08T12:30:01;2.83;;;1.40;;
34896;SDS011;43407;51.828;-2.298;2023-04-08T12:32:27;1.48;;;1.38;;
34896;SDS011;43407;51.828;-2.298;2023-04-08T12:34:53;2.95;;;1.90;;
34896;SDS011;43407;51.828;-2.298;2023-04-08T12:37:19;2.25;;;1.20;;
34896;SDS011;43407;51.828;-2.298;2023-04-08T12:39:45;2.70;;;1.58;;
34896;SDS011;43407;51.828;-2.298;2023-04-08T12:42:12;2.08;;;1.48;;
34896;SDS011;43407;51.828;-2.298;2023-04-08T12:44:38;2.97;;;1.75;;
34896;SDS011;43407;51.828;-2.298;2023-04-08T12:47:03;2.10;;;1.65;;
34896;SDS011;43407;51.828;-2.298;2023-04-08T12:49:29;2.22;;;2.00;;
34896;SDS011;43407;51.828;-2.298;2023-04-08T12:51:55;3.42;;;2.10;;
34896;SDS011;43407;51.828;-2.298;2023-04-08T12:54:20;2.05;;;1.50;;
34896;SDS011;43407;51.828;-2.298;2023-04-08T12:56:47;2.50;;;1.58;;
34896;SDS011;43407;51.828;-2.298;2023-04-08T12:59:13;3.45;;;1.80;;
34896;SDS011;43407;51.828;-2.298;2023-04-08T13:01:38;3.88;;;1.95;;
34896;SDS011;43407;51.828;-2.298;2023-04-08T13:04:04;3.78;;;1.60;;
34896;SDS011;43407;51.828;-2.298;2023-04-08T13:06:30;2.40;;;1.65;;
34896;SDS011;43407;51.828;-2.298;2023-04-08T13:08:56;2.90;;;2.00;;
34896;SDS011;43407;51.828;-2.298;2023-04-08T13:11:21;2.47;;;1.90;;
34896;SDS011;43407;51.828;-2.298;2023-04-08T13:13:47;3.30;;;1.67;;
34896;SDS011;43407;51.828;-2.298;2023-04-08T13:16:13;3.45;;;1.98;;
34896;SDS011;43407;51.828;-2.298;2023-04-08T13:18:39;1.70;;;1.60;;
34896;SDS011;43407;51.828;-2.298;2023-04-08T13:21:06;2.10;;;1.20;;
34896;SDS011;43407;51.828;-2.298;2023-04-08T13:23:31;2.47;;;1.50;;
34896;SDS011;43407;51.828;-2.298;2023-04-08T13:25:57;3.78;;;1.63;;
34896;SDS011;43407;51.828;-2.298;2023-04-08T13:28:23;1.95;;;1.40;;
34896;SDS011;43407;51.828;-2.298;2023-04-08T13:30:49;2.58;;;1.52;;
34896;SDS011;43407;51.828;-2.298;2023-04-08T13:33:15;2.63;;;1.73;;
34896;SDS011;43407;51.828;-2.298;2023-04-08T13:35:41;2.80;;;1.83;;
34896;SDS011;43407;51.828;-2.298;2023-04-08T13:38:06;4.07;;;1.90;;
34896;SDS011;43407;51.828;-2.298;2023-04-08T13:40:32;2.42;;;1.63;;
34896;SDS011;43407;51.828;-2.298;2023-04-08T13:42:58;2.72;;;1.98;;
34896;SDS011;43407;51.828;-2.298;2023-04-08T13:45:23;2.67;;;1.52;;
34896;SDS011;43407;51.828;-2.298;2023-04-08T13:47:49;1.85;;;1.50;;
34896;SDS011;43407;51.828;-2.298;2023-04-08T13:50:14;2.70;;;1.80;;
34896;SDS011;43407;51.828;-2.298;2023-04-08T13:52:40;1.67;;;1.30;;
34896;SDS011;43407;51.828;-2.298;2023-04-08T13:55:06;2.55;;;1.30;;
34896;SDS011;43407;51.828;-2.298;2023-04-08T13:57:32;2.45;;;1.35;;
34896;SDS011;43407;51.828;-2.298;2023-04-08T13:59:57;1.60;;;1.25;;
34896;SDS011;43407;51.828;-2.298;2023-04-08T14:02:23;1.70;;;1.60;;
34896;SDS011;43407;51.828;-2.298;2023-04-08T14:04:48;2.22;;;1.52;;
34896;SDS011;43407;51.828;-2.298;2023-04-08T14:07:14;1.95;;;1.10;;
34896;SDS011;43407;51.828;-2.298;2023-04-08T14:09:40;3.78;;;1.30;;
34896;SDS011;43407;51.828;-2.298;2023-04-08T14:12:05;1.83;;;1.60;;
34896;SDS011;43407;51.828;-2.298;2023-04-08T14:14:34;3.13;;;1.90;;
34896;SDS011;43407;51.828;-2.298;2023-04-08T14:17:00;4.40;;;2.17;;
34896;SDS011;43407;51.828;-2.298;2023-04-08T14:19:25;3.53;;;1.55;;
34896;SDS011;43407;51.828;-2.298;2023-04-08T14:21:51;2.47;;;1.20;;
34896;SDS011;43407;51.828;-2.298;2023-04-08T14:24:17;1.75;;;1.30;;
34896;SDS011;43407;51.828;-2.298;2023-04-08T14:26:42;2.67;;;1.60;;
34896;SDS011;43407;51.828;-2.298;2023-04-08T14:29:08;7.30;;;2.88;;
34896;SDS011;43407;51.828;-2.298;2023-04-08T14:31:33;1.98;;;1.42;;
34896;SDS011;43407;51.828;-2.298;2023-04-08T14:34:00;2.22;;;1.45;;
34896;SDS011;43407;51.828;-2.298;2023-04-08T14:36:29;1.92;;;1.40;;
34896;SDS011;43407;51.828;-2.298;2023-04-08T14:38:55;2.13;;;1.48;;
34896;SDS011;43407;51.828;-2.298;2023-04-08T14:41:21;3.63;;;1.92;;
34896;SDS011;43407;51.828;-2.298;2023-04-08T14:43:47;1.98;;;1.67;;
34896;SDS011;43407;51.828;-2.298;2023-04-08T14:46:13;2.17;;;1.70;;
34896;SDS011;43407;51.828;-2.298;2023-04-08T14:48:39;3.05;;;1.85;;
34896;SDS011;43407;51.828;-2.298;2023-04-08T14:51:04;2.85;;;1.73;;